Dulwich, United Kingdom
Current Conditions -  °F | °C
As of 3:20 PM on Thursday 23 Oct 2014 (Local Time) from EGLC Reporting Station
Broken Clouds Broken Clouds  
Wind Chill: 63°   Ceiling: 3500
Heat Index: 63°   Visibility: 6mi
Dew Point: 52°   Wind: 14mph
Humidity: 68%   Direction: 230°SW
Pressure: 30.06"   Gusts: NA
Location:  51.43°N, 0.09°W
Report Text: EGLC 231420Z 23012KT 200V260 9999 SCT020 BKN035 17/11 Q1018
Loading
Personal Weather Stations






























Interactive Weather Map
Tropical Storm Tracking
New forecast layout! Learn more

10-Day Weather Forecast

Advertisements
Track Severe Weather on mobile